Time;durP1;ratioP1;P1;durP2;ratioP2;P2;SDS_P1;SDS_P2;PMS_P1;PMS_P2;Temp;Humidity;BMP_temperature;BMP_pressure;BME280_temperature;BME280_humidity;BME280_pressure;Samples;Min_cycle;Max_cycle;Signal;HPM_P1;HPM_P2
2023/06/02 00:01:17;;;;;;;21.43;4.10;;;12.80;99.90;;;;;;5057191;28;20277;-60
2023/06/02 00:03:45;;;;;;;22.90;5.53;;;12.80;99.90;;;;;;5058488;28;20194;-56
2023/06/02 00:06:14;;;;;;;18.27;4.47;;;12.80;99.90;;;;;;5057718;28;20208;-58
2023/06/02 00:08:42;;;;;;;9.77;3.23;;;12.80;99.90;;;;;;5056018;28;20209;-58
2023/06/02 00:11:11;;;;;;;17.20;4.50;;;12.80;99.90;;;;;;5057052;28;20200;-59
2023/06/02 00:13:37;;;;;;;15.50;4.47;;;12.80;99.90;;;;;;5073053;28;20728;-59
2023/06/02 00:16:04;;;;;;;15.27;4.20;;;12.70;99.90;;;;;;5057314;28;20178;-60
2023/06/02 00:18:36;;;;;;;20.57;4.93;;;12.70;99.90;;;;;;5056952;28;20284;-58
2023/06/02 00:21:05;;;;;;;21.87;5.17;;;12.70;99.90;;;;;;5058404;28;20181;-56
2023/06/02 00:23:30;;;;;;;14.97;4.30;;;12.70;99.90;;;;;;5057007;28;20267;-58
2023/06/02 00:25:58;;;;;;;22.17;4.60;;;12.70;99.90;;;;;;5055578;28;20173;-58
2023/06/02 00:28:24;;;;;;;21.73;3.93;;;12.70;99.90;;;;;;5054563;28;20237;-58
2023/06/02 00:30:50;;;;;;;19.37;3.77;;;12.70;99.90;;;;;;5055518;28;20174;-59
2023/06/02 00:33:17;;;;;;;13.97;4.20;;;12.70;99.90;;;;;;5055735;28;20169;-59
2023/06/02 00:35:44;;;;;;;20.17;5.03;;;12.70;99.90;;;;;;5054687;28;20177;-57
2023/06/02 00:38:09;;;;;;;23.33;3.90;;;12.70;99.90;;;;;;5038267;28;20740;-59
2023/06/02 00:40:35;;;;;;;18.57;4.03;;;12.70;99.90;;;;;;5055571;28;20631;-59
2023/06/02 00:43:02;;;;;;;24.70;5.27;;;12.70;99.90;;;;;;5055969;28;20208;-59
2023/06/02 00:45:29;;;;;;;20.00;4.63;;;12.70;99.90;;;;;;5054701;28;20178;-59
2023/06/02 00:47:55;;;;;;;26.27;5.27;;;12.70;99.90;;;;;;5072660;28;20579;-59
2023/06/02 00:50:21;;;;;;;20.23;3.90;;;12.70;99.90;;;;;;5056370;28;20183;-59
2023/06/02 00:52:54;;;;;;;20.00;4.00;;;12.60;99.90;;;;;;5055329;28;20495;-58
2023/06/02 00:55:20;;;;;;;22.70;4.10;;;12.60;99.90;;;;;;5056234;28;20197;-59
2023/06/02 00:57:46;;;;;;;15.90;5.83;;;12.60;99.90;;;;;;5056276;28;20288;-59
2023/06/02 01:00:14;;;;;;;20.17;4.50;;;12.60;99.90;;;;;;5055937;28;20280;-56
2023/06/02 01:02:41;;;;;;;30.93;6.77;;;12.60;99.90;;;;;;5056939;28;20173;-58
2023/06/02 01:05:10;;;;;;;28.67;5.00;;;12.50;99.90;;;;;;5056280;28;20169;-58
2023/06/02 01:07:39;;;;;;;21.43;5.80;;;12.50;99.90;;;;;;5056749;28;20187;-58
2023/06/02 01:10:07;;;;;;;15.70;4.53;;;12.50;99.90;;;;;;5056235;28;20211;-59
2023/06/02 01:12:32;;;;;;;16.77;3.60;;;12.50;99.90;;;;;;5057129;28;20177;-57
2023/06/02 01:15:00;;;;;;;23.80;4.40;;;12.50;99.90;;;;;;5055154;28;20242;-58
2023/06/02 01:17:31;;;;;;;21.10;5.47;;;12.50;99.90;;;;;;5055322;28;20264;-58
2023/06/02 01:20:09;;;;;;;24.30;5.03;;;12.50;99.90;;;;;;5056417;28;20187;-58
2023/06/02 01:22:51;;;;;;;20.67;5.17;;;12.50;99.90;;;;;;5056213;28;20247;-58
2023/06/02 01:25:19;;;;;;;17.90;5.93;;;12.40;99.90;;;;;;5056192;28;20185;-58
2023/06/02 01:27:45;;;;;;;18.77;5.50;;;12.30;99.90;;;;;;5080226;28;20473;-58
2023/06/02 01:30:12;;;;;;;20.03;4.47;;;12.40;99.90;;;;;;5076521;28;20532;-58
2023/06/02 01:32:47;;;;;;;24.83;5.40;;;12.40;99.90;;;;;;5093263;28;20181;-58
2023/06/02 01:35:17;;;;;;;16.37;4.43;;;12.30;99.90;;;;;;5058274;28;20195;-58
2023/06/02 01:37:54;;;;;;;22.23;4.17;;;12.30;99.90;;;;;;5076814;28;20204;-58
2023/06/02 01:40:23;;;;;;;22.63;6.63;;;12.30;99.90;;;;;;5077174;28;20188;-57
2023/06/02 01:42:51;;;;;;;14.87;4.80;;;12.30;99.90;;;;;;5059516;28;20528;-56
2023/06/02 01:45:18;;;;;;;20.83;5.77;;;12.30;99.90;;;;;;5058654;28;20204;-58
2023/06/02 01:47:45;;;;;;;29.83;5.17;;;12.20;99.90;;;;;;5092768;28;20493;-56
2023/06/02 01:50:10;;;;;;;22.20;5.30;;;12.20;99.90;;;;;;5087613;28;20276;-57
2023/06/02 01:52:37;;;;;;;23.07;5.20;;;12.20;99.90;;;;;;5039198;28;20165;-56
2023/06/02 01:55:03;;;;;;;24.87;4.73;;;12.20;99.90;;;;;;5072054;28;20184;-55
2023/06/02 01:57:33;;;;;;;16.07;4.63;;;12.20;99.90;;;;;;5041539;28;20687;-57
2023/06/02 01:59:59;;;;;;;20.10;5.23;;;12.20;99.90;;;;;;5059374;28;20184;-58
2023/06/02 02:02:26;;;;;;;19.43;4.77;;;12.10;99.90;;;;;;5060574;28;20175;-58
2023/06/02 02:04:51;;;;;;;21.03;5.37;;;12.10;99.90;;;;;;5078518;28;20199;-56
2023/06/02 02:07:19;;;;;;;19.00;5.03;;;12.10;99.90;;;;;;5060488;28;20176;-58
2023/06/02 02:09:50;;;;;;;25.57;5.43;;;12.10;99.90;;;;;;5078300;28;20192;-57
2023/06/02 02:12:16;;;;;;;17.93;5.43;;;12.10;99.90;;;;;;5059896;28;20165;-56
2023/06/02 02:14:42;;;;;;;17.73;4.83;;;12.00;99.90;;;;;;5061013;28;20180;-56
2023/06/02 02:17:10;;;;;;;18.47;4.17;;;12.00;99.90;;;;;;5060352;28;20180;-56
2023/06/02 02:19:36;;;;;;;29.10;6.63;;;12.00;99.90;;;;;;5078955;28;20172;-57
2023/06/02 02:22:02;;;;;;;22.07;5.53;;;12.00;99.90;;;;;;5061260;28;20192;-54
2023/06/02 02:24:29;;;;;;;28.77;6.30;;;12.00;99.90;;;;;;5078757;28;20256;-58
2023/06/02 02:26:55;;;;;;;25.10;5.53;;;12.00;99.90;;;;;;5079564;28;20225;-58
2023/06/02 02:29:21;;;;;;;24.53;5.30;;;12.00;99.90;;;;;;5061602;28;20365;-59
2023/06/02 02:31:47;;;;;;;25.40;5.63;;;12.00;99.90;;;;;;5079797;28;20460;-56
2023/06/02 02:34:13;;;;;;;19.83;5.10;;;11.90;99.90;;;;;;5079943;28;20575;-54
2023/06/02 02:36:39;;;;;;;28.90;5.30;;;11.90;99.90;;;;;;5062664;28;20172;-58
2023/06/02 02:39:06;;;;;;;24.27;6.73;;;11.90;99.90;;;;;;5078977;28;20169;-58
2023/06/02 02:41:32;;;;;;;19.50;5.00;;;11.90;99.90;;;;;;5061958;28;20583;-58
2023/06/02 02:43:59;;;;;;;17.67;5.43;;;11.90;99.90;;;;;;5078817;28;20553;-57
2023/06/02 02:46:25;;;;;;;28.03;6.13;;;11.90;99.90;;;;;;5078674;28;20222;-56
2023/06/02 02:48:50;;;;;;;16.63;5.03;;;11.80;99.90;;;;;;5061671;28;20208;-57
2023/06/02 02:51:16;;;;;;;14.27;4.80;;;11.90;99.90;;;;;;5061551;28;20590;-57
2023/06/02 02:53:41;;;;;;;22.50;5.60;;;11.90;99.90;;;;;;5061771;28;20511;-58
2023/06/02 02:56:07;;;;;;;19.93;5.40;;;11.80;99.90;;;;;;5061174;28;20254;-58
2023/06/02 02:58:36;;;;;;;26.10;6.00;;;11.90;99.90;;;;;;5079172;28;20193;-57
2023/06/02 03:01:04;;;;;;;21.40;5.27;;;11.80;99.90;;;;;;5061737;28;20642;-58
2023/06/02 03:03:37;;;;;;;27.23;5.43;;;11.80;99.90;;;;;;5062198;28;20169;-58
2023/06/02 03:06:03;;;;;;;17.83;5.33;;;11.80;99.90;;;;;;5078938;28;20482;-57
2023/06/02 03:08:28;;;;;;;26.43;5.13;;;11.70;99.90;;;;;;5093510;28;20662;-58
2023/06/02 03:10:55;;;;;;;26.83;6.07;;;11.70;99.90;;;;;;5094451;28;20183;-58
2023/06/02 03:13:20;;;;;;;21.93;5.33;;;11.70;99.90;;;;;;5061003;28;20210;-57
2023/06/02 03:15:46;;;;;;;26.07;5.33;;;11.70;99.90;;;;;;5061004;28;20161;-57
2023/06/02 03:18:12;;;;;;;16.63;4.53;;;11.70;99.90;;;;;;5060891;28;20203;-55
2023/06/02 03:20:41;;;;;;;22.47;5.63;;;11.70;99.90;;;;;;5060680;28;20248;-58
2023/06/02 03:23:09;;;;;;;21.23;5.90;;;11.70;99.90;;;;;;5094685;28;20177;-57
2023/06/02 03:25:35;;;;;;;25.53;5.40;;;11.70;99.90;;;;;;5060694;28;20571;-53
2023/06/02 03:28:01;;;;;;;20.13;4.17;;;11.60;99.90;;;;;;5077797;28;20248;-58
2023/06/02 03:30:27;;;;;;;18.23;5.57;;;11.60;99.90;;;;;;5078227;28;20153;-57
2023/06/02 03:32:52;;;;;;;16.40;5.73;;;11.60;99.90;;;;;;5077709;28;20192;-58
2023/06/02 03:35:18;;;;;;;18.70;5.40;;;11.60;99.90;;;;;;5077367;28;20171;-58
2023/06/02 03:37:43;;;;;;;22.60;5.07;;;11.60;99.90;;;;;;5094042;28;20180;-58
2023/06/02 03:40:09;;;;;;;19.43;4.90;;;11.60;99.90;;;;;;5060106;28;20187;-58
2023/06/02 03:42:35;;;;;;;20.10;4.90;;;11.60;99.90;;;;;;5094160;28;20267;-58
2023/06/02 03:45:08;;;;;;;20.90;4.63;;;11.60;99.90;;;;;;5060956;28;20169;-55
2023/06/02 03:47:34;;;;;;;18.37;5.80;;;11.60;99.90;;;;;;5060202;28;20249;-57
2023/06/02 03:49:59;;;;;;;17.80;4.43;;;11.60;99.90;;;;;;5076909;28;20480;-58
2023/06/02 03:52:25;;;;;;;21.93;5.33;;;11.60;99.90;;;;;;5075588;28;20723;-58
2023/06/02 03:54:52;;;;;;;22.27;5.50;;;11.60;99.90;;;;;;5058525;28;20546;-57
2023/06/02 03:57:18;;;;;;;17.77;4.33;;;11.60;99.90;;;;;;5076427;28;20153;-58
2023/06/02 03:59:44;;;;;;;16.80;4.93;;;11.60;99.90;;;;;;5059029;28;20168;-57
2023/06/02 04:02:10;;;;;;;15.00;4.67;;;11.60;99.90;;;;;;5075433;28;20238;-58
2023/06/02 04:04:36;;;;;;;22.03;5.73;;;11.60;99.90;;;;;;5091985;28;20548;-58
2023/06/02 04:07:02;;;;;;;20.23;5.07;;;11.60;99.90;;;;;;5058209;28;20202;-58
2023/06/02 04:09:28;;;;;;;22.87;5.57;;;11.60;99.90;;;;;;5091677;28;20207;-58
2023/06/02 04:11:54;;;;;;;17.53;4.80;;;11.60;99.90;;;;;;5075158;28;20200;-57
2023/06/02 04:14:20;;;;;;;20.23;4.40;;;11.60;99.90;;;;;;5074223;28;20164;-58
2023/06/02 04:16:46;;;;;;;16.17;4.40;;;11.60;99.90;;;;;;5055912;28;20165;-58
2023/06/02 04:19:12;;;;;;;21.77;4.97;;;11.60;99.90;;;;;;5055522;28;20265;-58
2023/06/02 04:21:37;;;;;;;17.00;4.03;;;11.60;99.90;;;;;;5055344;28;20435;-57
2023/06/02 04:24:03;;;;;;;13.17;4.00;;;11.60;99.90;;;;;;5072409;28;20197;-58
2023/06/02 04:26:29;;;;;;;20.00;3.73;;;11.60;99.90;;;;;;5088620;28;20184;-59
2023/06/02 04:28:55;;;;;;;18.57;4.67;;;11.70;99.90;;;;;;5088646;28;20264;-58
2023/06/02 04:31:26;;;;;;;14.13;4.50;;;11.70;99.90;;;;;;5056999;28;20250;-58
2023/06/02 04:33:55;;;;;;;15.67;4.43;;;11.60;99.90;;;;;;5057357;28;20173;-59
2023/06/02 04:36:21;;;;;;;13.83;3.97;;;11.70;99.90;;;;;;5074081;28;20552;-59
2023/06/02 04:38:46;;;;;;;16.57;4.20;;;11.60;99.90;;;;;;5057369;28;20558;-60
2023/06/02 04:41:14;;;;;;;11.87;3.50;;;11.60;99.90;;;;;;5057017;28;20165;-58
2023/06/02 04:43:41;;;;;;;15.23;4.07;;;11.60;99.90;;;;;;5051725;28;20515;-57
2023/06/02 04:46:07;;;;;;;13.00;3.90;;;11.60;99.90;;;;;;5049745;28;20161;-56
2023/06/02 04:48:33;;;;;;;12.77;4.13;;;11.70;99.90;;;;;;5065448;28;20483;-59
2023/06/02 04:50:59;;;;;;;14.33;3.80;;;11.70;99.90;;;;;;5044869;28;20184;-57
2023/06/02 04:53:25;;;;;;;12.80;3.20;;;11.70;99.90;;;;;;5043459;28;20176;-59
2023/06/02 04:55:50;;;;;;;10.60;4.20;;;11.70;99.90;;;;;;5041675;28;20268;-59
2023/06/02 04:58:16;;;;;;;10.17;3.57;;;11.70;99.90;;;;;;5076074;28;20317;-59
2023/06/02 05:00:41;;;;;;;16.47;4.17;;;11.70;99.90;;;;;;5044391;28;20168;-59
2023/06/02 05:03:07;;;;;;;12.20;3.17;;;11.70;99.90;;;;;;5045070;28;20172;-59
2023/06/02 05:05:33;;;;;;;13.33;3.70;;;11.70;99.90;;;;;;5046831;28;20169;-57
2023/06/02 05:07:58;;;;;;;11.67;3.40;;;11.80;99.90;;;;;;5047246;28;20287;-58
2023/06/02 05:10:24;;;;;;;11.07;3.03;;;11.80;99.90;;;;;;5048553;28;20172;-57
2023/06/02 05:12:52;;;;;;;13.17;3.47;;;11.80;99.90;;;;;;5046786;28;20265;-59
2023/06/02 05:15:18;;;;;;;7.03;2.60;;;11.90;99.90;;;;;;5046704;28;20325;-59
2023/06/02 05:17:43;;;;;;;7.67;2.57;;;11.90;99.90;;;;;;5080930;28;20632;-57
2023/06/02 05:20:09;;;;;;;6.40;2.40;;;11.90;99.90;;;;;;5047381;28;20818;-59
2023/06/02 05:22:35;;;;;;;5.77;3.13;;;11.90;99.90;;;;;;5071513;28;20434;-59
2023/06/02 05:25:02;;;;;;;11.33;3.33;;;11.90;99.90;;;;;;5054720;28;20571;-59
2023/06/02 05:27:27;;;;;;;6.83;2.73;;;11.90;99.90;;;;;;5053442;28;20718;-59
2023/06/02 05:29:53;;;;;;;7.13;3.00;;;11.90;99.90;;;;;;5054827;28;20745;-59
2023/06/02 05:32:22;;;;;;;8.63;3.07;;;12.00;99.90;;;;;;5051852;28;20554;-58
2023/06/02 05:34:48;;;;;;;9.57;2.67;;;12.00;99.90;;;;;;5069043;28;20833;-59
2023/06/02 05:37:14;;;;;;;6.67;3.13;;;12.00;99.90;;;;;;5084163;28;20176;-58
2023/06/02 05:39:41;;;;;;;9.87;2.80;;;12.00;99.90;;;;;;5085808;28;20196;-59
2023/06/02 05:42:07;;;;;;;10.10;2.87;;;12.00;99.90;;;;;;5051341;28;20180;-59
2023/06/02 05:44:33;;;;;;;12.97;4.20;;;12.10;99.90;;;;;;5068380;28;20171;-57
2023/06/02 05:46:58;;;;;;;7.77;3.00;;;12.10;99.90;;;;;;5068123;28;20184;-59
2023/06/02 05:49:24;;;;;;;11.07;2.63;;;12.10;99.90;;;;;;5050106;28;20208;-60
2023/06/02 05:51:49;;;;;;;7.87;2.30;;;12.10;99.90;;;;;;5050459;28;20241;-59
2023/06/02 05:54:15;;;;;;;5.60;2.50;;;12.20;99.90;;;;;;5085447;28;20218;-59
2023/06/02 05:56:41;;;;;;;9.67;3.20;;;12.20;99.90;;;;;;5048902;28;20161;-58
2023/06/02 05:59:08;;;;;;;6.93;3.27;;;12.20;99.90;;;;;;5046245;28;20714;-59
2023/06/02 06:01:33;;;;;;;9.87;3.40;;;12.20;99.90;;;;;;5048359;28;20509;-59
2023/06/02 06:03:59;;;;;;;5.47;2.50;;;12.20;99.90;;;;;;5046026;28;20176;-58
2023/06/02 06:06:25;;;;;;;11.87;2.73;;;12.30;99.90;;;;;;5045540;28;20571;-58
2023/06/02 06:08:51;;;;;;;13.87;3.40;;;12.30;99.90;;;;;;5046422;28;20227;-58
2023/06/02 06:11:17;;;;;;;9.60;3.10;;;12.30;99.90;;;;;;5047090;28;20174;-57
2023/06/02 06:13:42;;;;;;;7.73;3.07;;;12.30;99.90;;;;;;5066039;28;20173;-58
2023/06/02 06:16:08;;;;;;;8.83;2.73;;;12.30;99.90;;;;;;5080691;28;20269;-59
2023/06/02 06:18:40;;;;;;;10.33;3.70;;;12.40;99.90;;;;;;5048965;28;20530;-58
2023/06/02 06:21:05;;;;;;;8.10;3.80;;;12.40;99.90;;;;;;5048551;28;20177;-58
2023/06/02 06:23:31;;;;;;;11.00;3.20;;;12.40;99.90;;;;;;5069556;28;20232;-59
2023/06/02 06:25:57;;;;;;;9.77;4.07;;;12.40;99.90;;;;;;5051948;28;20176;-58
2023/06/02 06:28:22;;;;;;;10.07;3.73;;;12.50;99.90;;;;;;5084378;28;20243;-57
2023/06/02 06:30:49;;;;;;;5.43;2.50;;;12.50;99.90;;;;;;5049372;28;20311;-58
2023/06/02 06:33:14;;;;;;;7.53;2.77;;;12.50;99.90;;;;;;5051115;28;20169;-58
2023/06/02 06:35:40;;;;;;;7.40;2.80;;;12.50;99.90;;;;;;5069002;28;20165;-59
2023/06/02 06:38:12;;;;;;;7.73;3.27;;;12.60;99.90;;;;;;5067328;28;20265;-56
2023/06/02 06:40:37;;;;;;;10.20;4.10;;;12.60;99.90;;;;;;5050862;28;20471;-59
2023/06/02 06:43:04;;;;;;;12.33;4.00;;;12.70;99.90;;;;;;5051910;28;20533;-59
2023/06/02 06:45:30;;;;;;;9.80;3.47;;;12.70;99.90;;;;;;5052724;28;20179;-59
2023/06/02 06:47:57;;;;;;;9.40;3.93;;;12.70;99.90;;;;;;5052565;28;20180;-59
2023/06/02 06:50:22;;;;;;;7.93;4.00;;;12.70;99.90;;;;;;5085847;28;20172;-58
2023/06/02 06:52:50;;;;;;;10.17;3.87;;;12.70;99.90;;;;;;5070041;28;20220;-59
2023/06/02 06:55:16;;;;;;;10.77;4.33;;;12.80;99.90;;;;;;5070241;28;20164;-59
2023/06/02 06:57:42;;;;;;;8.57;3.90;;;12.80;99.90;;;;;;5084932;28;20172;-59
2023/06/02 07:00:08;;;;;;;11.00;3.10;;;12.90;99.90;;;;;;5052132;28;20169;-59
2023/06/02 07:02:34;;;;;;;9.23;4.00;;;12.90;99.90;;;;;;5052485;28;20758;-58
2023/06/02 07:05:00;;;;;;;5.20;3.00;;;13.00;99.90;;;;;;5084790;28;20230;-59
2023/06/02 07:07:25;;;;;;;16.57;3.63;;;13.00;99.90;;;;;;5052045;28;20176;-57
2023/06/02 07:09:52;;;;;;;9.83;3.83;;;13.10;99.90;;;;;;5053891;28;20196;-59
2023/06/02 07:12:18;;;;;;;8.67;3.97;;;13.10;99.90;;;;;;5072629;28;20168;-59
2023/06/02 07:14:43;;;;;;;8.30;4.20;;;13.20;99.90;;;;;;5055030;28;20168;-58
2023/06/02 07:17:09;;;;;;;12.13;4.20;;;13.10;99.90;;;;;;5054389;28;20175;-59
2023/06/02 07:19:35;;;;;;;9.90;4.37;;;13.10;99.90;;;;;;5053320;28;20173;-57
2023/06/02 07:22:00;;;;;;;7.03;3.30;;;13.20;99.90;;;;;;5049346;28;20173;-59
2023/06/02 07:24:26;;;;;;;10.40;3.50;;;13.20;99.90;;;;;;5066964;28;20736;-58
2023/06/02 07:26:52;;;;;;;7.37;3.47;;;13.20;99.90;;;;;;5049523;28;20494;-59
2023/06/02 07:29:18;;;;;;;6.63;3.33;;;13.20;99.90;;;;;;5082052;28;20231;-59
2023/06/02 07:31:44;;;;;;;13.47;3.43;;;13.20;99.90;;;;;;5048479;28;20160;-59
2023/06/02 07:34:09;;;;;;;8.13;3.50;;;13.20;99.90;;;;;;5047858;28;20226;-56
2023/06/02 07:36:35;;;;;;;8.93;3.93;;;13.30;99.90;;;;;;5046711;28;20752;-59
2023/06/02 07:39:00;;;;;;;9.87;3.73;;;13.40;99.90;;;;;;5048867;28;20168;-57
2023/06/02 07:41:27;;;;;;;8.43;3.60;;;13.40;99.90;;;;;;5051428;28;20169;-57
2023/06/02 07:43:53;;;;;;;7.10;3.47;;;13.50;99.90;;;;;;5050316;28;20169;-58
2023/06/02 07:46:19;;;;;;;16.83;4.60;;;13.50;99.90;;;;;;5050885;28;20173;-58
2023/06/02 07:48:45;;;;;;;8.53;3.97;;;13.60;99.90;;;;;;5052540;28;20249;-56
2023/06/02 07:51:11;;;;;;;7.03;4.03;;;13.60;99.90;;;;;;5071350;28;20168;-58
2023/06/02 07:53:37;;;;;;;7.97;4.17;;;13.70;99.90;;;;;;5088018;28;20169;-59
2023/06/02 07:56:02;;;;;;;8.57;4.57;;;13.70;99.90;;;;;;5053960;28;20483;-58
2023/06/02 07:58:28;;;;;;;6.93;3.60;;;13.80;99.90;;;;;;5071804;28;20165;-58
2023/06/02 08:00:53;;;;;;;7.27;3.27;;;13.80;99.90;;;;;;5054528;28;20172;-58
2023/06/02 08:03:19;;;;;;;9.33;3.57;;;13.80;99.90;;;;;;5051240;28;20168;-58
2023/06/02 08:05:45;;;;;;;7.60;3.00;;;13.90;99.90;;;;;;5065973;28;20176;-59
2023/06/02 08:08:11;;;;;;;6.07;2.80;;;13.90;99.90;;;;;;5047087;28;20749;-59
2023/06/02 08:10:37;;;;;;;4.17;3.23;;;13.90;99.90;;;;;;5049042;28;20180;-59
2023/06/02 08:13:02;;;;;;;5.57;2.90;;;14.00;99.90;;;;;;5045348;28;20263;-59
2023/06/02 08:15:28;;;;;;;7.60;3.63;;;14.00;99.90;;;;;;5043391;28;20208;-58
2023/06/02 08:17:54;;;;;;;9.57;3.63;;;14.00;99.90;;;;;;5041802;28;20192;-58
2023/06/02 08:20:19;;;;;;;5.50;2.93;;;14.00;99.90;;;;;;5039097;28;20439;-59
2023/06/02 08:22:46;;;;;;;6.63;3.10;;;14.10;99.90;;;;;;5042606;28;20192;-56
2023/06/02 08:25:15;;;;;;;7.63;3.67;;;14.10;99.90;;;;;;5061871;28;20176;-59
2023/06/02 08:27:44;;;;;;;8.13;3.50;;;14.20;99.90;;;;;;5046292;28;20228;-57
2023/06/02 08:30:11;;;;;;;7.10;3.63;;;14.20;99.90;;;;;;5046379;28;20234;-58
2023/06/02 08:32:37;;;;;;;6.37;2.67;;;14.20;99.90;;;;;;5082146;28;20165;-59
2023/06/02 08:35:03;;;;;;;7.90;3.20;;;14.30;99.90;;;;;;5049977;28;20179;-59
2023/06/02 08:37:31;;;;;;;6.10;3.10;;;14.30;99.90;;;;;;5049109;28;20251;-59
2023/06/02 08:39:57;;;;;;;6.83;3.13;;;14.30;99.90;;;;;;5048745;28;20245;-58
2023/06/02 08:42:26;;;;;;;4.77;2.90;;;14.40;99.90;;;;;;5049677;28;20176;-58
2023/06/02 08:44:51;;;;;;;5.60;3.33;;;14.40;99.90;;;;;;5049434;28;20211;-57
2023/06/02 08:47:23;;;;;;;5.07;2.67;;;14.50;99.90;;;;;;5066878;28;20212;-59
2023/06/02 08:49:49;;;;;;;6.47;2.97;;;14.50;99.90;;;;;;5049061;28;20212;-58
2023/06/02 08:52:19;;;;;;;5.10;2.90;;;14.50;99.90;;;;;;5050476;28;20260;-58
2023/06/02 08:54:46;;;;;;;7.27;3.30;;;14.50;99.90;;;;;;5049366;28;20750;-59
2023/06/02 08:57:16;;;;;;;5.20;2.70;;;14.60;99.90;;;;;;5048022;28;20802;-59
2023/06/02 08:59:43;;;;;;;6.17;3.20;;;14.70;99.90;;;;;;5081453;28;20173;-58
2023/06/02 09:02:11;;;;;;;5.03;3.17;;;14.70;99.90;;;;;;5050197;28;20172;-58
2023/06/02 09:04:37;;;;;;;7.67;2.80;;;14.70;99.90;;;;;;5083142;28;20242;-58
2023/06/02 09:07:20;;;;;;;8.00;3.27;;;14.70;99.90;;;;;;5081437;28;20176;-57
2023/06/02 09:09:49;;;;;;;5.23;2.30;;;14.70;99.90;;;;;;5048760;28;20204;-58
2023/06/02 09:12:16;;;;;;;4.40;2.47;;;14.70;99.90;;;;;;5063787;28;20173;-58
2023/06/02 09:14:42;;;;;;;4.97;3.03;;;14.70;99.90;;;;;;5046290;28;20173;-56
2023/06/02 09:17:30;;;;;;;4.63;2.20;;;14.70;99.90;;;;;;5063974;28;20679;-57
2023/06/02 09:20:06;;;;;;;3.60;2.07;;;14.70;99.90;;;;;;5045889;28;20218;-58
2023/06/02 09:22:32;;;;;;;3.03;1.53;;;14.70;99.90;;;;;;5045681;28;20267;-59
2023/06/02 09:24:58;;;;;;;6.57;2.20;;;14.70;99.90;;;;;;5063846;28;20172;-56
2023/06/02 09:27:25;;;;;;;2.93;1.70;;;14.70;99.90;;;;;;5046937;28;20172;-58
2023/06/02 09:30:01;;;;;;;4.90;2.27;;;14.80;99.90;;;;;;5079022;28;20205;-59
2023/06/02 09:32:27;;;;;;;5.63;2.00;;;14.90;99.90;;;;;;5062823;28;20160;-58
2023/06/02 09:34:53;;;;;;;7.30;2.20;;;14.90;99.90;;;;;;5045695;28;20175;-58
2023/06/02 09:37:22;;;;;;;7.80;2.00;;;15.00;99.90;;;;;;5047781;28;20157;-63
2023/06/02 09:39:52;;;;;;;4.53;1.90;;;15.10;99.90;;;;;;5066329;28;20175;-63
2023/06/02 09:42:19;;;;;;;5.57;2.20;;;15.20;99.90;;;;;;5049250;28;20222;-63
2023/06/02 09:45:10;;;;;;;4.37;2.00;;;15.30;99.90;;;;;;5048733;28;20179;-64
2023/06/02 09:47:37;;;;;;;4.50;1.80;;;15.40;99.90;;;;;;5068733;28;20175;-63
2023/06/02 09:50:05;;;;;;;2.67;1.73;;;15.50;99.90;;;;;;5070122;28;20242;-64
2023/06/02 09:52:32;;;;;;;2.80;1.80;;;15.50;99.90;;;;;;5085658;28;20180;-63
2023/06/02 09:54:59;;;;;;;3.67;1.60;;;15.50;99.90;;;;;;5051579;28;20558;-64
2023/06/02 09:57:25;;;;;;;5.30;1.97;;;15.50;99.90;;;;;;5052131;28;20234;-63
2023/06/02 09:59:51;;;;;;;4.03;2.00;;;15.60;99.90;;;;;;5066806;28;20264;-63
2023/06/02 10:02:17;;;;;;;4.80;2.00;;;15.60;99.90;;;;;;5063216;28;20267;-63
2023/06/02 10:04:45;;;;;;;2.43;1.37;;;15.70;99.90;;;;;;5045291;28;20280;-63
2023/06/02 10:07:44;;;;;;;2.87;1.60;;;15.70;99.90;;;;;;5045685;28;20575;-64
2023/06/02 10:10:49;;;;;;;3.13;1.47;;;15.80;99.90;;;;;;5061208;28;20311;-58
2023/06/02 10:13:33;;;;;;;2.00;1.40;;;15.90;99.90;;;;;;5079575;28;20794;-56
2023/06/02 10:16:09;;;;;;;2.87;1.27;;;15.90;99.90;;;;;;5063316;28;20157;-57
2023/06/02 10:18:44;;;;;;;2.07;1.50;;;15.90;99.90;;;;;;5083569;28;20259;-58
2023/06/02 10:21:33;;;;;;;3.20;1.57;;;15.90;99.90;;;;;;5085837;28;20326;-56
2023/06/02 10:24:18;;;;;;;1.43;1.20;;;16.00;99.90;;;;;;5070390;28;20169;-58
2023/06/02 10:27:16;;;;;;;2.10;1.20;;;16.00;99.90;;;;;;5084098;28;20180;-58
2023/06/02 10:29:43;;;;;;;3.53;1.30;;;16.10;99.90;;;;;;5051135;28;20220;-57
2023/06/02 10:32:33;;;;;;;3.23;1.63;;;16.20;99.90;;;;;;5068900;28;20172;-57
2023/06/02 10:35:00;;;;;;;2.93;1.20;;;16.30;99.90;;;;;;5069530;28;20275;-57
2023/06/02 10:37:27;;;;;;;5.50;1.90;;;16.30;99.90;;;;;;5085829;28;20161;-58
2023/06/02 10:39:54;;;;;;;4.57;1.70;;;16.30;99.90;;;;;;5054554;28;20169;-59
2023/06/02 10:42:22;;;;;;;1.93;1.07;;;16.40;99.90;;;;;;5073186;28;20261;-56
2023/06/02 10:44:51;;;;;;;3.07;1.50;;;16.40;99.90;;;;;;5072943;28;20202;-59
2023/06/02 10:47:20;;;;;;;3.17;1.33;;;16.40;99.90;;;;;;5091405;28;20176;-58
2023/06/02 10:50:02;;;;;;;1.87;1.00;;;16.50;99.90;;;;;;5090017;28;20626;-59
2023/06/02 10:52:33;;;;;;;4.53;1.37;;;16.50;99.90;;;;;;5055181;28;20536;-57
2023/06/02 10:55:11;;;;;;;4.53;1.20;;;16.50;99.90;;;;;;5055273;28;20164;-58
2023/06/02 10:57:59;;;;;;;3.33;1.60;;;16.50;99.90;;;;;;5087792;28;20165;-58
2023/06/02 11:00:53;;;;;;;4.37;1.30;;;16.50;99.90;;;;;;5085525;28;20169;-58
2023/06/02 11:03:22;;;;;;;5.50;1.30;;;16.60;99.90;;;;;;5084487;28;20168;-58
2023/06/02 11:05:50;;;;;;;5.40;1.23;;;16.60;99.90;;;;;;5082691;28;20259;-58
2023/06/02 11:08:18;;;;;;;1.70;1.27;;;16.60;99.90;;;;;;5047666;28;20173;-58
2023/06/02 11:10:56;;;;;;;2.57;1.07;;;16.70;99.90;;;;;;5063433;28;20173;-57
2023/06/02 11:13:27;;;;;;;3.20;1.50;;;16.70;99.90;;;;;;5062059;28;20175;-58
2023/06/02 11:15:58;;;;;;;1.53;1.00;;;16.80;99.90;;;;;;5062222;28;20244;-58
2023/06/02 11:18:34;;;;;;;10.77;1.40;;;16.90;99.90;;;;;;5080973;28;20169;-59
2023/06/02 11:21:18;;;;;;;4.93;1.33;;;16.90;99.90;;;;;;5075953;28;20570;-56
2023/06/02 11:23:44;;;;;;;2.97;1.40;;;17.00;99.90;;;;;;5029525;28;20199;-58
2023/06/02 11:26:18;;;;;;;3.47;1.43;;;17.00;99.90;;;;;;5062903;28;20170;-54
2023/06/02 11:28:45;;;;;;;2.23;1.20;;;16.90;99.90;;;;;;5029399;28;20320;-57
2023/06/02 11:31:17;;;;;;;4.17;1.13;;;16.90;99.90;;;;;;5043092;28;20169;-56
2023/06/02 11:33:51;;;;;;;5.27;1.80;;;17.00;99.90;;;;;;5043000;28;20199;-58
2023/06/02 11:36:29;;;;;;;4.43;1.33;;;17.00;99.90;;;;;;5043167;28;20177;-58
2023/06/02 11:39:03;;;;;;;3.27;1.50;;;17.10;99.90;;;;;;5055790;28;20625;-57
2023/06/02 11:41:29;;;;;;;1.00;0.90;;;17.20;99.90;;;;;;5022483;28;20212;-57
2023/06/02 11:44:03;;;;;;;2.27;1.20;;;17.20;99.90;;;;;;5056992;28;20205;-58
2023/06/02 11:46:29;;;;;;;2.53;1.33;;;17.20;99.90;;;;;;5026616;28;20238;-57
2023/06/02 11:48:57;;;;;;;7.13;1.67;;;17.30;99.90;;;;;;5024509;28;20231;-54
2023/06/02 11:51:23;;;;;;;6.17;1.53;;;17.30;99.90;;;;;;5024523;28;20587;-56
2023/06/02 11:53:59;;;;;;;1.47;1.10;;;17.30;99.90;;;;;;5024353;28;20192;-58
2023/06/02 11:56:25;;;;;;;6.83;1.33;;;17.40;99.90;;;;;;5024224;28;20223;-56
2023/06/02 11:58:52;;;;;;;4.13;1.20;;;17.50;99.90;;;;;;5056221;28;20182;-55
2023/06/02 12:01:21;;;;;;;3.97;1.67;;;17.80;99.90;;;;;;5022894;28;20264;-56
2023/06/02 12:04:04;;;;;;;7.60;1.43;;;18.10;99.90;;;;;;5023419;28;20170;-55
2023/06/02 12:06:31;;;;;;;6.37;1.30;;;18.30;99.90;;;;;;5041770;28;20226;-58
2023/06/02 12:09:19;;;;;;;4.00;1.10;;;18.40;99.90;;;;;;5022230;28;20209;-58
2023/06/02 12:11:46;;;;;;;3.17;1.17;;;18.40;99.90;;;;;;5035769;28;20176;-57
2023/06/02 12:14:18;;;;;;;4.97;1.10;;;18.50;99.90;;;;;;5036594;28;20166;-57
2023/06/02 12:16:44;;;;;;;3.80;1.40;;;18.50;99.90;;;;;;5017087;28;20797;-58
2023/06/02 12:19:22;;;;;;;1.47;1.00;;;18.50;99.90;;;;;;5018008;28;20169;-58
2023/06/02 12:21:51;;;;;;;3.30;1.20;;;18.70;99.90;;;;;;5020191;28;20235;-57
2023/06/02 12:24:29;;;;;;;2.40;1.30;;;18.80;99.90;;;;;;5038201;28;20181;-56
2023/06/02 12:26:57;;;;;;;2.73;1.20;;;18.80;99.90;;;;;;5054235;28;20173;-58
2023/06/02 12:29:24;;;;;;;3.53;1.37;;;19.00;99.90;;;;;;5020208;28;20249;-57
2023/06/02 12:32:02;;;;;;;5.90;1.33;;;19.10;99.90;;;;;;5032925;28;20239;-57
2023/06/02 12:34:29;;;;;;;3.53;1.23;;;19.20;99.90;;;;;;5039975;28;20169;-55
2023/06/02 12:36:55;;;;;;;5.93;1.23;;;19.20;99.90;;;;;;5040726;28;20205;-55
2023/06/02 12:39:23;;;;;;;3.33;0.90;;;19.30;99.90;;;;;;5040239;28;20213;-58
2023/06/02 12:41:49;;;;;;;1.47;1.03;;;19.30;99.90;;;;;;5041225;28;20177;-54
2023/06/02 12:44:15;;;;;;;3.17;1.07;;;19.30;99.90;;;;;;5041930;28;20165;-56
2023/06/02 12:46:42;;;;;;;3.63;1.20;;;19.30;99.90;;;;;;5041771;28;20257;-58
2023/06/02 12:49:12;;;;;;;1.80;1.00;;;19.30;99.90;;;;;;5043475;28;20258;-57